sensor_id;sensor_type;location;lat;lon;timestamp;pressure;altitude;pressure_sealevel;temperature;humidity
63552;BME280;49698;48.072;7.800;2023-04-04T00:00:11;100049.88;;;3.22;60.75
63552;BME280;49698;48.072;7.800;2023-04-04T00:02:39;100045.94;;;3.25;60.82
63552;BME280;49698;48.072;7.800;2023-04-04T00:05:09;100041.44;;;3.25;60.73
63552;BME280;49698;48.072;7.800;2023-04-04T00:07:36;100051.09;;;3.19;60.89
63552;BME280;49698;48.072;7.800;2023-04-04T00:10:05;100044.84;;;3.14;61.06
63552;BME280;49698;48.072;7.800;2023-04-04T00:12:33;100048.13;;;3.09;61.47
63552;BME280;49698;48.072;7.800;2023-04-04T00:15:03;100045.53;;;3.03;61.56
63552;BME280;49698;48.072;7.800;2023-04-04T00:17:31;100042.72;;;2.98;61.91
63552;BME280;49698;48.072;7.800;2023-04-04T00:19:59;100043.97;;;2.95;62.07
63552;BME280;49698;48.072;7.800;2023-04-04T00:22:28;100031.56;;;2.89;62.26
63552;BME280;49698;48.072;7.800;2023-04-04T00:24:57;100039.75;;;2.87;62.40
63552;BME280;49698;48.072;7.800;2023-04-04T00:27:25;100047.91;;;2.86;62.50
63552;BME280;49698;48.072;7.800;2023-04-04T00:29:53;100039.38;;;2.84;62.54
63552;BME280;49698;48.072;7.800;2023-04-04T00:32:21;100042.44;;;2.81;62.51
63552;BME280;49698;48.072;7.800;2023-04-04T00:34:51;100041.25;;;2.77;62.71
63552;BME280;49698;48.072;7.800;2023-04-04T00:37:19;100034.53;;;2.74;62.82
63552;BME280;49698;48.072;7.800;2023-04-04T00:39:49;100028.25;;;2.68;62.50
63552;BME280;49698;48.072;7.800;2023-04-04T00:42:17;100035.44;;;2.61;62.97
63552;BME280;49698;48.072;7.800;2023-04-04T00:44:45;100036.28;;;2.55;63.12
63552;BME280;49698;48.072;7.800;2023-04-04T00:47:13;100036.50;;;2.54;63.31
63552;BME280;49698;48.072;7.800;2023-04-04T00:49:43;100032.03;;;2.48;63.42
63552;BME280;49698;48.072;7.800;2023-04-04T00:52:12;100030.25;;;2.41;63.62
63552;BME280;49698;48.072;7.800;2023-04-04T00:54:40;100026.19;;;2.39;63.95
63552;BME280;49698;48.072;7.800;2023-04-04T00:57:09;100029.25;;;2.36;63.94
63552;BME280;49698;48.072;7.800;2023-04-04T00:59:37;100031.72;;;2.37;64.08
63552;BME280;49698;48.072;7.800;2023-04-04T01:02:06;100028.25;;;2.37;64.93
63552;BME280;49698;48.072;7.800;2023-04-04T01:04:34;100026.19;;;2.39;64.05
63552;BME280;49698;48.072;7.800;2023-04-04T01:07:02;100030.69;;;2.38;63.70
63552;BME280;49698;48.072;7.800;2023-04-04T01:09:31;100027.66;;;2.35;63.70
63552;BME280;49698;48.072;7.800;2023-04-04T01:12:00;100032.38;;;2.33;63.73
63552;BME280;49698;48.072;7.800;2023-04-04T01:14:32;100016.44;;;2.33;63.44
63552;BME280;49698;48.072;7.800;2023-04-04T01:17:00;100021.91;;;2.38;63.33
63552;BME280;49698;48.072;7.800;2023-04-04T01:19:32;100020.88;;;2.39;63.55
63552;BME280;49698;48.072;7.800;2023-04-04T01:22:07;100024.16;;;2.41;63.24
63552;BME280;49698;48.072;7.800;2023-04-04T01:24:37;100018.63;;;2.42;63.31
63552;BME280;49698;48.072;7.800;2023-04-04T01:27:07;100019.44;;;2.43;62.75
63552;BME280;49698;48.072;7.800;2023-04-04T01:29:42;100021.28;;;2.42;62.98
63552;BME280;49698;48.072;7.800;2023-04-04T01:32:12;100017.19;;;2.40;63.06
63552;BME280;49698;48.072;7.800;2023-04-04T01:34:47;100018.47;;;2.37;62.38
63552;BME280;49698;48.072;7.800;2023-04-04T01:37:23;100017.69;;;2.30;62.76
63552;BME280;49698;48.072;7.800;2023-04-04T01:40:00;100014.88;;;2.25;63.14
63552;BME280;49698;48.072;7.800;2023-04-04T01:42:35;100015.88;;;2.24;62.84
63552;BME280;49698;48.072;7.800;2023-04-04T01:45:06;100015.88;;;2.24;62.96
63552;BME280;49698;48.072;7.800;2023-04-04T01:47:38;100011.19;;;2.26;62.89
63552;BME280;49698;48.072;7.800;2023-04-04T01:50:10;100008.91;;;2.30;63.25
63552;BME280;49698;48.072;7.800;2023-04-04T01:52:38;100012.16;;;2.32;63.20
63552;BME280;49698;48.072;7.800;2023-04-04T01:55:07;100017.44;;;2.32;63.00
63552;BME280;49698;48.072;7.800;2023-04-04T01:57:37;100010.75;;;2.29;63.28
63552;BME280;49698;48.072;7.800;2023-04-04T02:00:06;100014.25;;;2.23;63.53
63552;BME280;49698;48.072;7.800;2023-04-04T02:02:43;100011.22;;;2.19;63.63
63552;BME280;49698;48.072;7.800;2023-04-04T02:05:11;100024.88;;;2.16;63.81
63552;BME280;49698;48.072;7.800;2023-04-04T02:07:39;100002.06;;;2.15;63.76
63552;BME280;49698;48.072;7.800;2023-04-04T02:10:19;100013.31;;;2.11;63.34
63552;BME280;49698;48.072;7.800;2023-04-04T02:12:51;100020.25;;;2.05;63.63
63552;BME280;49698;48.072;7.800;2023-04-04T02:15:21;100017.00;;;2.03;63.71
63552;BME280;49698;48.072;7.800;2023-04-04T02:17:49;100017.44;;;2.00;63.74
63552;BME280;49698;48.072;7.800;2023-04-04T02:20:18;100012.53;;;1.97;63.73
63552;BME280;49698;48.072;7.800;2023-04-04T02:22:50;100008.28;;;1.96;63.95
63552;BME280;49698;48.072;7.800;2023-04-04T02:25:19;100017.84;;;1.97;63.65
63552;BME280;49698;48.072;7.800;2023-04-04T02:27:47;100011.16;;;1.94;63.88
63552;BME280;49698;48.072;7.800;2023-04-04T02:30:16;100008.28;;;1.96;63.31
63552;BME280;49698;48.072;7.800;2023-04-04T02:32:45;100008.69;;;1.93;63.61
63552;BME280;49698;48.072;7.800;2023-04-04T02:35:17;100013.81;;;1.88;63.38
63552;BME280;49698;48.072;7.800;2023-04-04T02:37:45;100018.50;;;1.86;63.66
63552;BME280;49698;48.072;7.800;2023-04-04T02:40:21;100014.63;;;1.88;63.56
63552;BME280;49698;48.072;7.800;2023-04-04T02:42:49;100016.69;;;1.86;63.45
63552;BME280;49698;48.072;7.800;2023-04-04T02:45:20;100012.22;;;1.80;63.19
63552;BME280;49698;48.072;7.800;2023-04-04T02:47:58;100015.91;;;1.79;63.36
63552;BME280;49698;48.072;7.800;2023-04-04T02:50:36;100010.38;;;1.81;63.69
63552;BME280;49698;48.072;7.800;2023-04-04T02:53:05;100007.31;;;1.77;63.47
63552;BME280;49698;48.072;7.800;2023-04-04T02:55:35;100011.22;;;1.75;63.57
63552;BME280;49698;48.072;7.800;2023-04-04T02:58:03;100003.88;;;1.77;63.74
63552;BME280;49698;48.072;7.800;2023-04-04T03:00:32;99999.38;;;1.77;63.44
63552;BME280;49698;48.072;7.800;2023-04-04T03:03:00;100001.84;;;1.79;63.54
63552;BME280;49698;48.072;7.800;2023-04-04T03:05:32;100008.13;;;1.78;63.59
63552;BME280;49698;48.072;7.800;2023-04-04T03:08:01;100002.25;;;1.76;63.50
63552;BME280;49698;48.072;7.800;2023-04-04T03:10:30;99997.97;;;1.75;63.26
63552;BME280;49698;48.072;7.800;2023-04-04T03:12:58;100004.69;;;1.77;63.39
63552;BME280;49698;48.072;7.800;2023-04-04T03:15:28;100001.22;;;1.77;63.48
63552;BME280;49698;48.072;7.800;2023-04-04T03:17:58;100001.63;;;1.74;63.08
63552;BME280;49698;48.072;7.800;2023-04-04T03:20:29;100004.53;;;1.65;63.36
63552;BME280;49698;48.072;7.800;2023-04-04T03:22:57;99997.78;;;1.69;63.29
63552;BME280;49698;48.072;7.800;2023-04-04T03:25:25;100003.69;;;1.78;63.20
63552;BME280;49698;48.072;7.800;2023-04-04T03:27:53;99995.50;;;1.80;62.91
63552;BME280;49698;48.072;7.800;2023-04-04T03:30:24;99992.25;;;1.78;63.14
63552;BME280;49698;48.072;7.800;2023-04-04T03:32:52;99995.53;;;1.73;63.03
63552;BME280;49698;48.072;7.800;2023-04-04T03:35:22;99996.16;;;1.68;62.99
63552;BME280;49698;48.072;7.800;2023-04-04T03:37:50;99991.88;;;1.67;63.00
63552;BME280;49698;48.072;7.800;2023-04-04T03:40:18;99990.69;;;1.63;63.17
63552;BME280;49698;48.072;7.800;2023-04-04T03:42:46;99992.72;;;1.61;63.12
63552;BME280;49698;48.072;7.800;2023-04-04T03:45:18;99992.13;;;1.59;63.34
63552;BME280;49698;48.072;7.800;2023-04-04T03:47:46;99990.28;;;1.60;63.57
63552;BME280;49698;48.072;7.800;2023-04-04T03:50:14;99992.94;;;1.53;62.81
63552;BME280;49698;48.072;7.800;2023-04-04T03:52:50;99994.56;;;1.54;63.37
63552;BME280;49698;48.072;7.800;2023-04-04T03:55:18;99989.72;;;1.51;63.05
63552;BME280;49698;48.072;7.800;2023-04-04T03:57:46;99989.09;;;1.49;63.05
63552;BME280;49698;48.072;7.800;2023-04-04T04:00:15;99992.38;;;1.51;63.34
63552;BME280;49698;48.072;7.800;2023-04-04T04:02:43;99992.78;;;1.48;63.56
63552;BME280;49698;48.072;7.800;2023-04-04T04:05:12;99994.78;;;1.53;63.02
63552;BME280;49698;48.072;7.800;2023-04-04T04:07:42;99991.72;;;1.56;62.85
63552;BME280;49698;48.072;7.800;2023-04-04T04:10:11;99993.97;;;1.52;63.14
63552;BME280;49698;48.072;7.800;2023-04-04T04:12:40;99986.28;;;1.44;62.72
63552;BME280;49698;48.072;7.800;2023-04-04T04:15:09;99994.63;;;1.41;63.13
63552;BME280;49698;48.072;7.800;2023-04-04T04:17:39;99996.25;;;1.42;63.19
63552;BME280;49698;48.072;7.800;2023-04-04T04:20:09;99995.84;;;1.45;63.01
63552;BME280;49698;48.072;7.800;2023-04-04T04:22:44;99995.84;;;1.45;62.72
63552;BME280;49698;48.072;7.800;2023-04-04T04:25:13;100002.75;;;1.39;63.22
63552;BME280;49698;48.072;7.800;2023-04-04T04:27:47;100005.22;;;1.41;62.79
63552;BME280;49698;48.072;7.800;2023-04-04T04:30:18;100007.06;;;1.40;62.84
63552;BME280;49698;48.072;7.800;2023-04-04T04:32:47;100010.72;;;1.39;62.75
63552;BME280;49698;48.072;7.800;2023-04-04T04:35:17;100010.28;;;1.42;62.84
63552;BME280;49698;48.072;7.800;2023-04-04T04:37:46;100015.41;;;1.37;62.82
63552;BME280;49698;48.072;7.800;2023-04-04T04:40:16;100012.38;;;1.34;62.99
63552;BME280;49698;48.072;7.800;2023-04-04T04:42:50;100015.22;;;1.32;63.41
63552;BME280;49698;48.072;7.800;2023-04-04T04:45:21;100027.22;;;1.35;63.27
63552;BME280;49698;48.072;7.800;2023-04-04T04:47:58;100027.63;;;1.38;63.21
63552;BME280;49698;48.072;7.800;2023-04-04T04:50:26;100027.22;;;1.41;63.34
63552;BME280;49698;48.072;7.800;2023-04-04T04:52:55;100022.16;;;1.40;63.51
63552;BME280;49698;48.072;7.800;2023-04-04T04:55:25;100030.69;;;1.35;63.67
63552;BME280;49698;48.072;7.800;2023-04-04T04:58:04;100029.91;;;1.28;63.75
63552;BME280;49698;48.072;7.800;2023-04-04T05:00:33;100033.59;;;1.20;64.22
63552;BME280;49698;48.072;7.800;2023-04-04T05:03:01;100031.75;;;1.14;64.50
63552;BME280;49698;48.072;7.800;2023-04-04T05:05:45;100026.25;;;1.09;64.60
63552;BME280;49698;48.072;7.800;2023-04-04T05:08:13;100024.63;;;1.08;64.99
63552;BME280;49698;48.072;7.800;2023-04-04T05:10:53;100030.34;;;1.05;64.80
63552;BME280;49698;48.072;7.800;2023-04-04T05:13:26;100033.19;;;1.04;64.77
63552;BME280;49698;48.072;7.800;2023-04-04T05:15:54;100036.03;;;1.02;64.75
63552;BME280;49698;48.072;7.800;2023-04-04T05:18:22;100040.72;;;1.00;64.85
63552;BME280;49698;48.072;7.800;2023-04-04T05:20:50;100045.59;;;1.03;65.00
63552;BME280;49698;48.072;7.800;2023-04-04T05:23:20;100047.84;;;1.06;64.96
63552;BME280;49698;48.072;7.800;2023-04-04T05:25:48;100044.97;;;1.08;64.77
63552;BME280;49698;48.072;7.800;2023-04-04T05:28:18;100043.38;;;1.07;64.86
63552;BME280;49698;48.072;7.800;2023-04-04T05:30:48;100048.25;;;1.10;64.79
63552;BME280;49698;48.072;7.800;2023-04-04T05:33:21;100045.38;;;1.11;64.86
63552;BME280;49698;48.072;7.800;2023-04-04T05:35:59;100056.38;;;1.15;64.78
63552;BME280;49698;48.072;7.800;2023-04-04T05:38:29;100053.34;;;1.18;64.34
63552;BME280;49698;48.072;7.800;2023-04-04T05:40:58;100056.56;;;1.20;64.76
63552;BME280;49698;48.072;7.800;2023-04-04T05:43:27;100059.03;;;1.21;64.77
63552;BME280;49698;48.072;7.800;2023-04-04T05:46:01;100055.78;;;1.26;64.42
63552;BME280;49698;48.072;7.800;2023-04-04T05:48:34;100058.00;;;1.29;64.09
63552;BME280;49698;48.072;7.800;2023-04-04T05:51:03;100061.66;;;1.35;63.96
63552;BME280;49698;48.072;7.800;2023-04-04T05:53:43;100065.34;;;1.40;63.93
63552;BME280;49698;48.072;7.800;2023-04-04T05:56:17;100072.66;;;1.45;63.94
63552;BME280;49698;48.072;7.800;2023-04-04T05:58:47;100061.84;;;1.46;63.93
63552;BME280;49698;48.072;7.800;2023-04-04T06:01:15;100066.94;;;1.48;63.94
63552;BME280;49698;48.072;7.800;2023-04-04T06:03:44;100066.53;;;1.51;63.84
63552;BME280;49698;48.072;7.800;2023-04-04T06:06:18;100073.88;;;1.56;63.63
63552;BME280;49698;48.072;7.800;2023-04-04T06:08:47;100076.28;;;1.57;63.79
63552;BME280;49698;48.072;7.800;2023-04-04T06:11:18;100076.69;;;1.61;63.61
63552;BME280;49698;48.072;7.800;2023-04-04T06:13:48;100072.19;;;1.68;63.42
63552;BME280;49698;48.072;7.800;2023-04-04T06:16:20;100073.19;;;1.74;63.15
63552;BME280;49698;48.072;7.800;2023-04-04T06:18:48;100077.50;;;1.75;63.15
63552;BME280;49698;48.072;7.800;2023-04-04T06:21:16;100076.25;;;1.77;63.22
63552;BME280;49698;48.072;7.800;2023-04-04T06:23:44;100067.25;;;1.85;63.07
63552;BME280;49698;48.072;7.800;2023-04-04T06:26:12;100071.72;;;1.91;62.88
63552;BME280;49698;48.072;7.800;2023-04-04T06:28:46;100075.78;;;1.93;63.08
63552;BME280;49698;48.072;7.800;2023-04-04T06:31:18;100074.13;;;1.99;63.14
63552;BME280;49698;48.072;7.800;2023-04-04T06:33:47;100075.34;;;2.03;63.16
63552;BME280;49698;48.072;7.800;2023-04-04T06:36:18;100066.16;;;2.06;63.10
63552;BME280;49698;48.072;7.800;2023-04-04T06:38:46;100067.56;;;2.08;62.88
63552;BME280;49698;48.072;7.800;2023-04-04T06:41:17;100068.75;;;2.12;63.11
63552;BME280;49698;48.072;7.800;2023-04-04T06:43:48;100069.16;;;2.16;63.15
63552;BME280;49698;48.072;7.800;2023-04-04T06:46:17;100068.91;;;2.24;62.89
63552;BME280;49698;48.072;7.800;2023-04-04T06:48:47;100059.72;;;2.27;63.16
63552;BME280;49698;48.072;7.800;2023-04-04T06:51:16;100060.72;;;2.32;63.26
63552;BME280;49698;48.072;7.800;2023-04-04T06:53:45;100063.94;;;2.41;62.93
63552;BME280;49698;48.072;7.800;2023-04-04T06:56:13;100071.84;;;2.48;63.01
63552;BME280;49698;48.072;7.800;2023-04-04T06:58:41;100058.78;;;2.53;62.55
63552;BME280;49698;48.072;7.800;2023-04-04T07:01:09;100054.28;;;2.53;62.53
63552;BME280;49698;48.072;7.800;2023-04-04T07:03:37;100049.56;;;2.55;62.47
63552;BME280;49698;48.072;7.800;2023-04-04T07:06:06;100048.47;;;2.63;61.73
63552;BME280;49698;48.072;7.800;2023-04-04T07:08:34;100052.13;;;2.68;61.56
63552;BME280;49698;48.072;7.800;2023-04-04T07:11:03;100058.22;;;2.76;61.56
63552;BME280;49698;48.072;7.800;2023-04-04T07:13:31;100046.72;;;2.82;61.22
63552;BME280;49698;48.072;7.800;2023-04-04T07:16:00;100050.94;;;2.89;61.09
63552;BME280;49698;48.072;7.800;2023-04-04T07:18:29;100048.09;;;2.91;61.07
63552;BME280;49698;48.072;7.800;2023-04-04T07:20:57;100047.63;;;2.94;60.80
63552;BME280;49698;48.072;7.800;2023-04-04T07:23:26;100046.16;;;2.98;60.63
63552;BME280;49698;48.072;7.800;2023-04-04T07:25:54;100050.84;;;3.03;60.39
63552;BME280;49698;48.072;7.800;2023-04-04T07:28:22;100052.03;;;3.07;60.35
63552;BME280;49698;48.072;7.800;2023-04-04T07:30:50;100046.88;;;3.12;60.06
63552;BME280;49698;48.072;7.800;2023-04-04T07:33:18;100044.19;;;3.18;59.85
63552;BME280;49698;48.072;7.800;2023-04-04T07:35:47;100039.53;;;3.32;59.84
63552;BME280;49698;48.072;7.800;2023-04-04T07:38:15;100043.31;;;3.43;59.48
63552;BME280;49698;48.072;7.800;2023-04-04T07:40:47;100033.19;;;3.52;59.43
63552;BME280;49698;48.072;7.800;2023-04-04T07:43:15;100034.56;;;3.61;59.36
63552;BME280;49698;48.072;7.800;2023-04-04T07:45:43;100036.47;;;3.72;58.58
63552;BME280;49698;48.072;7.800;2023-04-04T07:48:11;100035.50;;;3.85;58.78
63552;BME280;49698;48.072;7.800;2023-04-04T07:50:39;100029.19;;;3.98;58.72
63552;BME280;49698;48.072;7.800;2023-04-04T07:53:07;100030.75;;;4.05;58.10
63552;BME280;49698;48.072;7.800;2023-04-04T07:55:35;100027.31;;;4.16;57.62
63552;BME280;49698;48.072;7.800;2023-04-04T07:58:04;100027.97;;;4.30;57.11
63552;BME280;49698;48.072;7.800;2023-04-04T08:00:32;100021.19;;;4.46;57.02
63552;BME280;49698;48.072;7.800;2023-04-04T08:03:00;100021.69;;;4.66;56.56
63552;BME280;49698;48.072;7.800;2023-04-04T08:05:28;100025.78;;;4.93;55.85
63552;BME280;49698;48.072;7.800;2023-04-04T08:07:56;100015.94;;;5.17;54.79
63552;BME280;49698;48.072;7.800;2023-04-04T08:10:24;100014.53;;;5.37;54.68
63552;BME280;49698;48.072;7.800;2023-04-04T08:12:53;100020.91;;;5.60;53.16
63552;BME280;49698;48.072;7.800;2023-04-04T08:15:22;100022.09;;;6.04;52.21
63552;BME280;49698;48.072;7.800;2023-04-04T08:17:50;100021.34;;;6.83;50.25
63552;BME280;49698;48.072;7.800;2023-04-04T08:20:19;100007.31;;;7.70;48.34
63552;BME280;49698;48.072;7.800;2023-04-04T08:22:47;100015.75;;;8.50;46.33
63552;BME280;49698;48.072;7.800;2023-04-04T08:25:15;100013.88;;;9.20;44.80
63552;BME280;49698;48.072;7.800;2023-04-04T08:27:44;100021.75;;;9.94;43.14
63552;BME280;49698;48.072;7.800;2023-04-04T08:30:12;100011.16;;;10.35;40.71
63552;BME280;49698;48.072;7.800;2023-04-04T08:32:42;100013.88;;;10.86;40.20
63552;BME280;49698;48.072;7.800;2023-04-04T08:35:11;100006.81;;;11.41;38.49
63552;BME280;49698;48.072;7.800;2023-04-04T08:37:43;100014.72;;;11.97;37.18
63552;BME280;49698;48.072;7.800;2023-04-04T08:40:12;100012.84;;;12.42;35.66
63552;BME280;49698;48.072;7.800;2023-04-04T08:42:41;100009.25;;;12.57;35.00
63552;BME280;49698;48.072;7.800;2023-04-04T08:45:10;100008.44;;;12.57;35.10
63552;BME280;49698;48.072;7.800;2023-04-04T08:47:40;100005.91;;;12.31;35.68
63552;BME280;49698;48.072;7.800;2023-04-04T08:50:11;100004.06;;;11.67;35.86
63552;BME280;49698;48.072;7.800;2023-04-04T08:52:39;100005.28;;;10.94;37.34
63552;BME280;49698;48.072;7.800;2023-04-04T08:55:08;100005.53;;;10.47;36.99
63552;BME280;49698;48.072;7.800;2023-04-04T08:57:36;100002.94;;;9.89;37.74
63552;BME280;49698;48.072;7.800;2023-04-04T09:00:06;100006.03;;;9.55;38.79
63552;BME280;49698;48.072;7.800;2023-04-04T09:02:40;99997.84;;;9.30;38.82
63552;BME280;49698;48.072;7.800;2023-04-04T09:05:12;100006.41;;;9.22;39.01
63552;BME280;49698;48.072;7.800;2023-04-04T09:07:41;100001.59;;;9.29;39.23
63552;BME280;49698;48.072;7.800;2023-04-04T09:10:10;99999.84;;;9.55;38.90
63552;BME280;49698;48.072;7.800;2023-04-04T09:12:41;100004.91;;;10.14;37.32
63552;BME280;49698;48.072;7.800;2023-04-04T09:15:10;100000.94;;;11.29;35.38
63552;BME280;49698;48.072;7.800;2023-04-04T09:17:38;100004.59;;;12.29;33.41
63552;BME280;49698;48.072;7.800;2023-04-04T09:20:38;100000.84;;;12.24;32.64
63552;BME280;49698;48.072;7.800;2023-04-04T09:23:08;99996.31;;;11.45;34.11
63552;BME280;49698;48.072;7.800;2023-04-04T09:25:43;100002.06;;;10.92;34.99
63552;BME280;49698;48.072;7.800;2023-04-04T09:28:16;100005.53;;;10.52;36.13
63552;BME280;49698;48.072;7.800;2023-04-04T09:30:46;99991.22;;;10.11;36.04
63552;BME280;49698;48.072;7.800;2023-04-04T09:33:15;100006.44;;;9.90;37.14
63552;BME280;49698;48.072;7.800;2023-04-04T09:35:49;99994.84;;;9.74;36.68
63552;BME280;49698;48.072;7.800;2023-04-04T09:38:19;100002.81;;;9.59;37.68
63552;BME280;49698;48.072;7.800;2023-04-04T09:40:48;100001.13;;;9.42;37.29
63552;BME280;49698;48.072;7.800;2023-04-04T09:43:17;100002.16;;;9.31;37.09
63552;BME280;49698;48.072;7.800;2023-04-04T09:45:48;100001.97;;;9.05;36.92
63552;BME280;49698;48.072;7.800;2023-04-04T09:48:24;99999.59;;;9.09;38.26
63552;BME280;49698;48.072;7.800;2023-04-04T09:50:55;100008.22;;;9.16;37.99
63552;BME280;49698;48.072;7.800;2023-04-04T09:53:24;99999.84;;;9.07;37.21
63552;BME280;49698;48.072;7.800;2023-04-04T09:55:53;99998.25;;;9.06;37.59
63552;BME280;49698;48.072;7.800;2023-04-04T09:58:23;100001.59;;;9.29;37.45
63552;BME280;49698;48.072;7.800;2023-04-04T10:00:53;99996.88;;;9.46;37.55
63552;BME280;49698;48.072;7.800;2023-04-04T10:03:22;100001.22;;;9.63;37.95
63552;BME280;49698;48.072;7.800;2023-04-04T10:05:58;100006.16;;;9.86;37.94
63552;BME280;49698;48.072;7.800;2023-04-04T10:08:27;100004.84;;;9.89;37.90
63552;BME280;49698;48.072;7.800;2023-04-04T10:10:57;100002.16;;;9.94;38.01
63552;BME280;49698;48.072;7.800;2023-04-04T10:13:36;99997.56;;;9.84;37.05
63552;BME280;49698;48.072;7.800;2023-04-04T10:16:06;100001.31;;;9.83;37.73
63552;BME280;49698;48.072;7.800;2023-04-04T10:18:35;99998.91;;;9.87;37.47
63552;BME280;49698;48.072;7.800;2023-04-04T10:21:07;99997.59;;;9.94;37.33
63552;BME280;49698;48.072;7.800;2023-04-04T10:23:40;99992.53;;;10.08;37.63
63552;BME280;49698;48.072;7.800;2023-04-04T10:26:08;99998.19;;;10.22;37.25
63552;BME280;49698;48.072;7.800;2023-04-04T10:28:38;99996.66;;;10.31;37.55
63552;BME280;49698;48.072;7.800;2023-04-04T10:31:14;99995.03;;;10.30;37.09
63552;BME280;49698;48.072;7.800;2023-04-04T10:33:49;99987.50;;;10.32;36.94
63552;BME280;49698;48.072;7.800;2023-04-04T10:36:22;99988.88;;;10.40;37.31
63552;BME280;49698;48.072;7.800;2023-04-04T10:38:57;99981.09;;;10.38;36.97
63552;BME280;49698;48.072;7.800;2023-04-04T10:41:30;99971.94;;;10.44;37.63
63552;BME280;49698;48.072;7.800;2023-04-04T10:44:05;99969.53;;;10.58;37.18
63552;BME280;49698;48.072;7.800;2023-04-04T10:46:37;99972.75;;;10.70;37.89
63552;BME280;49698;48.072;7.800;2023-04-04T10:49:09;99972.72;;;10.91;37.62
63552;BME280;49698;48.072;7.800;2023-04-04T10:51:39;99982.44;;;10.97;37.54
63552;BME280;49698;48.072;7.800;2023-04-04T10:54:14;99983.75;;;10.99;37.62
63552;BME280;49698;48.072;7.800;2023-04-04T10:56:42;99976.22;;;11.07;37.69
63552;BME280;49698;48.072;7.800;2023-04-04T10:59:12;99970.28;;;10.99;36.98
63552;BME280;49698;48.072;7.800;2023-04-04T11:01:55;99971.91;;;10.95;37.17
63552;BME280;49698;48.072;7.800;2023-04-04T11:04:31;99966.00;;;10.83;36.83
63552;BME280;49698;48.072;7.800;2023-04-04T11:07:08;99962.81;;;10.71;36.82
63552;BME280;49698;48.072;7.800;2023-04-04T11:09:47;99956.34;;;10.72;36.89
63552;BME280;49698;48.072;7.800;2023-04-04T11:12:15;99956.09;;;10.73;36.65
63552;BME280;49698;48.072;7.800;2023-04-04T11:15:06;99959.03;;;10.87;36.96
63552;BME280;49698;48.072;7.800;2023-04-04T11:18:04;99954.97;;;11.05;37.05
63552;BME280;49698;48.072;7.800;2023-04-04T11:20:41;99949.81;;;11.24;36.73
63552;BME280;49698;48.072;7.800;2023-04-04T11:23:16;99941.75;;;11.24;36.46
63552;BME280;49698;48.072;7.800;2023-04-04T11:25:50;99938.25;;;11.23;36.13
63552;BME280;49698;48.072;7.800;2023-04-04T11:28:26;99935.50;;;11.39;36.28
63552;BME280;49698;48.072;7.800;2023-04-04T11:31:26;99928.72;;;11.51;35.71
63552;BME280;49698;48.072;7.800;2023-04-04T11:33:57;99914.75;;;11.44;36.24
63552;BME280;49698;48.072;7.800;2023-04-04T11:36:50;99923.34;;;11.51;36.53
63552;BME280;49698;48.072;7.800;2023-04-04T11:39:29;99916.88;;;11.58;35.88
63552;BME280;49698;48.072;7.800;2023-04-04T11:42:01;99928.69;;;11.62;35.86
63552;BME280;49698;48.072;7.800;2023-04-04T11:44:31;99916.00;;;11.67;35.39
63552;BME280;49698;48.072;7.800;2023-04-04T11:47:01;99907.38;;;11.70;35.57
63552;BME280;49698;48.072;7.800;2023-04-04T11:49:33;99916.75;;;11.73;35.84
63552;BME280;49698;48.072;7.800;2023-04-04T11:52:04;99915.69;;;11.74;35.49
63552;BME280;49698;48.072;7.800;2023-04-04T11:54:34;99922.19;;;11.68;35.58
63552;BME280;49698;48.072;7.800;2023-04-04T11:57:02;99908.72;;;11.68;35.46
63552;BME280;49698;48.072;7.800;2023-04-04T11:59:32;99936.16;;;11.75;35.24
63552;BME280;49698;48.072;7.800;2023-04-04T12:02:00;99909.50;;;11.73;35.17
63552;BME280;49698;48.072;7.800;2023-04-04T12:04:28;99918.28;;;11.94;35.23
63552;BME280;49698;48.072;7.800;2023-04-04T12:06:56;99914.50;;;12.01;34.65
63552;BME280;49698;48.072;7.800;2023-04-04T12:09:26;99910.72;;;12.02;34.85
63552;BME280;49698;48.072;7.800;2023-04-04T12:11:55;99913.38;;;12.07;34.86
63552;BME280;49698;48.072;7.800;2023-04-04T12:14:23;99918.19;;;12.10;34.04
63552;BME280;49698;48.072;7.800;2023-04-04T12:16:54;99910.13;;;12.10;34.63
63552;BME280;49698;48.072;7.800;2023-04-04T12:19:23;99910.41;;;12.08;34.24
63552;BME280;49698;48.072;7.800;2023-04-04T12:21:52;99914.69;;;12.09;34.49
63552;BME280;49698;48.072;7.800;2023-04-04T12:24:20;99913.84;;;12.14;34.33
63552;BME280;49698;48.072;7.800;2023-04-04T12:26:51;99911.13;;;12.19;34.23
63552;BME280;49698;48.072;7.800;2023-04-04T12:29:21;99917.25;;;12.30;34.08
63552;BME280;49698;48.072;7.800;2023-04-04T12:31:50;99905.22;;;12.17;33.52
63552;BME280;49698;48.072;7.800;2023-04-04T12:34:21;99901.75;;;12.11;33.67
63552;BME280;49698;48.072;7.800;2023-04-04T12:36:51;99903.63;;;12.16;33.78
63552;BME280;49698;48.072;7.800;2023-04-04T12:39:21;99908.97;;;12.21;33.16
63552;BME280;49698;48.072;7.800;2023-04-04T12:41:52;99898.66;;;12.28;33.26
63552;BME280;49698;48.072;7.800;2023-04-04T12:44:26;99901.38;;;12.23;33.30
63552;BME280;49698;48.072;7.800;2023-04-04T12:46:57;99903.53;;;12.26;33.36
63552;BME280;49698;48.072;7.800;2023-04-04T12:49:29;99886.97;;;12.43;33.63
63552;BME280;49698;48.072;7.800;2023-04-04T12:51:58;99886.00;;;12.58;33.27
63552;BME280;49698;48.072;7.800;2023-04-04T12:54:34;99890.34;;;12.54;33.08
63552;BME280;49698;48.072;7.800;2023-04-04T12:57:05;99898.88;;;12.66;33.55
63552;BME280;49698;48.072;7.800;2023-04-04T12:59:35;99882.09;;;12.74;34.17
63552;BME280;49698;48.072;7.800;2023-04-04T13:02:07;99889.34;;;12.73;35.02
63552;BME280;49698;48.072;7.800;2023-04-04T13:04:35;99883.16;;;12.73;35.25
63552;BME280;49698;48.072;7.800;2023-04-04T13:07:19;99890.56;;;12.62;36.13
63552;BME280;49698;48.072;7.800;2023-04-04T13:09:51;99888.19;;;12.56;35.93
63552;BME280;49698;48.072;7.800;2023-04-04T13:12:20;99882.88;;;12.45;35.98
63552;BME280;49698;48.072;7.800;2023-04-04T13:15:02;99884.84;;;12.35;36.50
63552;BME280;49698;48.072;7.800;2023-04-04T13:17:40;99889.50;;;12.29;36.39